Time;durP1;ratioP1;P1;durP2;ratioP2;P2;SDS_P1;SDS_P2;PMS_P1;PMS_P2;Temp;Humidity;BMP_temperature;BMP_pressure;BME280_temperature;BME280_humidity;BME280_pressure;Samples;Min_cycle;Max_cycle;Signal;HPM_P1;HPM_P2
2022/01/26 00:06:42;;;;;;;;;;;0.50;99.90;;;;;;5025180;28;20120;-69
2022/01/26 00:09:09;;;;;;;;;;;0.50;99.90;;;;;;5025065;28;19980;-68
2022/01/26 00:11:37;;;;;;;;;;;0.50;99.90;;;;;;5024892;28;19927;-67
2022/01/26 00:14:09;;;;;;;;;;;0.50;99.90;;;;;;5024840;28;19928;-67
2022/01/26 00:16:37;;;;;;;;;;;0.60;99.90;;;;;;5025262;28;19952;-68
2022/01/26 00:19:05;;;;;;;;;;;0.50;99.90;;;;;;5024330;28;19921;-68
2022/01/26 00:21:35;;;;;;;;;;;0.50;99.90;;;;;;5014211;28;19985;-67
2022/01/26 00:24:21;;;;;;;;;;;0.50;99.90;;;;;;5004568;28;19957;-68
2022/01/26 00:27:09;;;;;;;;;;;0.50;99.90;;;;;;5005312;28;20094;-68
2022/01/26 00:29:37;;;;;;;;;;;0.60;99.90;;;;;;5005135;28;19922;-68
2022/01/26 00:40:25;;;;;;;;;;;0.60;99.90;;;;;;5018716;28;19999;-67
2022/01/26 00:42:57;;;;;;;;;;;0.50;99.90;;;;;;5024687;28;19921;-67
2022/01/26 00:45:27;;;;;;;;;;;0.60;99.90;;;;;;5024188;28;19960;-67
2022/01/26 00:47:54;;;;;;;;;;;0.60;99.90;;;;;;5024622;28;19928;-67
2022/01/26 00:50:20;;;;;;;;;;;0.60;99.90;;;;;;5024204;28;19929;-67
2022/01/26 00:52:53;;;;;;;;;;;0.50;99.90;;;;;;5024463;28;19985;-67
2022/01/26 00:55:20;;;;;;;;;;;0.50;99.90;;;;;;5024186;28;19922;-68
2022/01/26 00:57:47;;;;;;;;;;;0.60;99.90;;;;;;5024400;28;19921;-70
2022/01/26 01:00:16;;;;;;;;;;;0.50;99.90;;;;;;5024360;28;19922;-67
2022/01/26 01:02:43;;;;;;;;;;;0.50;99.90;;;;;;5024145;28;19921;-67
2022/01/26 01:05:16;;;;;;;;;;;0.50;99.90;;;;;;5024131;28;19922;-67
2022/01/26 01:07:44;;;;;;;;;;;0.50;99.90;;;;;;5024351;28;20121;-67
2022/01/26 01:10:11;;;;;;;;;;;0.50;99.90;;;;;;5023933;28;20169;-68
2022/01/26 01:12:42;;;;;;;;;;;0.50;99.90;;;;;;5024186;28;19928;-67
2022/01/26 01:15:09;;;;;;;;;;;0.50;99.90;;;;;;5024029;28;19983;-67
2022/01/26 01:17:42;;;;;;;;;;;0.50;99.90;;;;;;5023067;28;20216;-67
2022/01/26 01:20:17;;;;;;;;;;;0.60;99.90;;;;;;5024182;28;19971;-67
2022/01/26 01:23:08;;;;;;;;;;;0.50;99.90;;;;;;5024081;28;19928;-68
2022/01/26 01:28:29;;;;;;;;;;;0.50;99.90;;;;;;5023954;28;19971;-67
2022/01/26 01:30:59;;;;;;;;;;;0.50;99.90;;;;;;5023962;28;19929;-67
2022/01/26 01:33:31;;;;;;;;;;;0.50;99.90;;;;;;5024104;28;19925;-67
2022/01/26 01:36:00;;;;;;;;;;;0.50;99.90;;;;;;5023916;28;19985;-68
2022/01/26 01:38:28;;;;;;;;;;;0.50;99.90;;;;;;5023945;28;19957;-67
2022/01/26 01:40:55;;;;;;;;;;;0.50;99.90;;;;;;5023634;28;20313;-67
2022/01/26 01:43:22;;;;;;;;;;;0.50;99.90;;;;;;5023778;28;19925;-67
2022/01/26 01:45:51;;;;;;;;;;;0.40;99.90;;;;;;5023239;28;19957;-68
2022/01/26 01:48:20;;;;;;;;;;;0.40;99.90;;;;;;5023304;28;20341;-67
2022/01/26 01:50:50;;;;;;;;;;;0.50;99.90;;;;;;5024826;28;19984;-68
2022/01/26 01:53:17;;;;;;;;;;;0.40;99.90;;;;;;5027538;28;19921;-68
2022/01/26 01:55:47;;;;;;;;;;;0.40;99.90;;;;;;5027463;28;19941;-68
2022/01/26 01:58:14;;;;;;;;;;;0.40;99.90;;;;;;5026519;28;19956;-69
2022/01/26 02:00:40;;;;;;;;;;;0.40;99.90;;;;;;5027200;28;20116;-68
2022/01/26 02:03:07;;;;;;;;;;;0.40;99.90;;;;;;5027584;28;19929;-67
2022/01/26 02:05:34;;;;;;;;;;;0.40;99.90;;;;;;5027335;28;20141;-68
2022/01/26 02:08:01;;;;;;;;;;;0.30;99.90;;;;;;5027586;28;19928;-68
2022/01/26 02:10:29;;;;;;;;;;;0.30;99.90;;;;;;5027105;28;19921;-67
2022/01/26 02:12:57;;;;;;;;;;;0.30;99.90;;;;;;5027488;28;19957;-67
2022/01/26 02:15:30;;;;;;;;;;;0.30;99.90;;;;;;5027108;28;19953;-67
2022/01/26 02:21:10;;;;;;;;;;;0.20;99.90;;;;;;5025263;28;19964;-68
2022/01/26 02:56:51;;;;;;;;;;;0.20;99.90;;;;;;5005128;28;19928;-69
2022/01/26 02:59:38;;;;;;;;;;;0.20;99.90;;;;;;5006124;28;20209;-68
2022/01/26 03:02:07;;;;;;;;;;;0.20;99.90;;;;;;5005905;28;19922;-68
2022/01/26 03:04:40;;;;;;;;;;;0.20;99.90;;;;;;5005982;28;19936;-68
2022/01/26 03:07:12;;;;;;;;;;;0.20;99.90;;;;;;5021989;28;20144;-67
2022/01/26 03:09:45;;;;;;;;;;;0.20;99.90;;;;;;5025685;28;19925;-68
2022/01/26 03:12:17;;;;;;;;;;;0.20;99.90;;;;;;5025765;28;19929;-67
2022/01/26 03:14:48;;;;;;;;;;;0.10;99.90;;;;;;5025422;28;19945;-68
2022/01/26 03:17:28;;;;;;;;;;;0.10;99.90;;;;;;5025016;28;19928;-68
2022/01/26 03:20:00;;;;;;;;;;;0.10;99.90;;;;;;5024241;28;20153;-68
2022/01/26 03:28:20;;;;;;;;;;;0.10;99.90;;;;;;5025280;28;19928;-68
2022/01/26 03:31:11;;;;;;;;;;;0.10;99.90;;;;;;5070284;23;19967;-69
2022/01/26 03:33:53;;;;;;;;;;;0.10;99.90;;;;;;5044733;28;19935;-70
2022/01/26 03:36:20;;;;;;;;;;;0.10;99.90;;;;;;5044802;28;19917;-69
2022/01/26 03:38:50;;;;;;;;;;;0.10;99.90;;;;;;5044782;28;20226;-69
2022/01/26 03:41:31;;;;;;;;;;;0.10;99.90;;;;;;5041244;28;19922;-69
2022/01/26 03:43:58;;;;;;;;;;;0.10;99.90;;;;;;5024935;28;19921;-69
2022/01/26 03:46:24;;;;;;;;;;;0.10;99.90;;;;;;5025045;28;19928;-69
2022/01/26 03:48:51;;;;;;;;;;;0.10;99.90;;;;;;5024809;28;19928;-69
2022/01/26 03:51:18;;;;;;;;;;;0.10;99.90;;;;;;5024859;28;20208;-69
2022/01/26 03:53:44;;;;;;;;;;;0.10;99.90;;;;;;5029482;28;19988;-68
2022/01/26 03:56:11;;;;;;;;;;;0.10;99.90;;;;;;5044419;28;19921;-69
2022/01/26 03:58:39;;;;;;;;;;;0.10;99.90;;;;;;5044578;28;19921;-69
2022/01/26 04:01:05;;;;;;;;;;;0.10;99.90;;;;;;5044441;28;19921;-69
2022/01/26 04:03:32;;;;;;;;;;;0.10;99.90;;;;;;5044153;28;19927;-69
2022/01/26 04:05:59;;;;;;;;;;;0.00;99.90;;;;;;5039570;28;19945;-69
2022/01/26 04:08:28;;;;;;;;;;;0.00;99.90;;;;;;5024727;28;19936;-68
2022/01/26 04:11:06;;;;;;;;;;;0.00;99.90;;;;;;5024447;28;20097;-69
2022/01/26 04:13:33;;;;;;;;;;;-0.10;99.90;;;;;;5023504;28;19967;-69
2022/01/26 04:16:01;;;;;;;;;;;0.00;99.90;;;;;;5024255;28;19936;-69
2022/01/26 04:18:33;;;;;;;;;;;0.00;99.90;;;;;;5030506;28;20008;-69
2022/01/26 04:21:04;;;;;;;;;;;-0.10;99.90;;;;;;5043915;28;19999;-69
2022/01/26 04:23:38;;;;;;;;;;;0.00;99.90;;;;;;5044183;28;19956;-69
2022/01/26 04:26:05;;;;;;;;;;;0.00;99.90;;;;;;5043965;28;19988;-69
2022/01/26 04:28:38;;;;;;;;;;;-0.10;99.90;;;;;;5044184;28;19929;-69
2022/01/26 04:31:06;;;;;;;;;;;-0.10;99.90;;;;;;5032129;28;19921;-69
2022/01/26 04:33:34;;;;;;;;;;;-0.10;99.90;;;;;;5024083;28;19921;-69
2022/01/26 04:36:03;;;;;;;;;;;-0.20;99.90;;;;;;5024062;28;19928;-69
2022/01/26 04:38:35;;;;;;;;;;;-0.10;99.90;;;;;;5023905;28;20205;-69
2022/01/26 04:41:15;;;;;;;;;;;-0.10;99.90;;;;;;5023977;28;19976;-69
2022/01/26 04:43:44;;;;;;;;;;;-0.10;99.90;;;;;;5041397;28;20115;-69
2022/01/26 04:46:12;;;;;;;;;;;-0.10;99.90;;;;;;5043760;28;19921;-69
2022/01/26 04:48:39;;;;;;;;;;;-0.10;99.90;;;;;;5043619;28;19921;-69
2022/01/26 04:51:05;;;;;;;;;;;-0.10;99.90;;;;;;5043642;28;19928;-69
2022/01/26 04:53:32;;;;;;;;;;;0.00;99.90;;;;;;5043244;28;19921;-69
2022/01/26 04:55:58;;;;;;;;;;;-0.10;99.90;;;;;;5024967;28;19928;-69
2022/01/26 04:58:25;;;;;;;;;;;0.00;99.90;;;;;;5023544;28;20208;-69
2022/01/26 05:00:51;;;;;;;;;;;-0.10;99.90;;;;;;5023770;28;19922;-69
2022/01/26 05:03:19;;;;;;;;;;;-0.10;99.90;;;;;;5023677;28;19929;-69
2022/01/26 05:05:46;;;;;;;;;;;-0.10;99.90;;;;;;5023278;28;19928;-68
2022/01/26 05:08:13;;;;;;;;;;;-0.10;99.90;;;;;;5041024;28;19929;-68
2022/01/26 05:10:42;;;;;;;;;;;-0.10;99.90;;;;;;5043305;28;19929;-68
2022/01/26 05:13:10;;;;;;;;;;;-0.10;99.90;;;;;;5043400;28;19921;-69
2022/01/26 05:15:37;;;;;;;;;;;-0.10;99.90;;;;;;5042997;28;19925;-68
2022/01/26 05:18:05;;;;;;;;;;;-0.10;99.90;;;;;;5042767;28;19921;-68
2022/01/26 05:20:34;;;;;;;;;;;-0.10;99.90;;;;;;5023198;28;19927;-68
2022/01/26 05:23:00;;;;;;;;;;;-0.10;99.90;;;;;;5023389;28;19927;-69
2022/01/26 05:25:27;;;;;;;;;;;-0.20;99.90;;;;;;5005532;28;19922;-68
2022/01/26 05:27:54;;;;;;;;;;;-0.20;99.90;;;;;;5023395;28;19921;-68
2022/01/26 05:30:20;;;;;;;;;;;-0.30;99.90;;;;;;5023240;28;19928;-68
2022/01/26 05:32:47;;;;;;;;;;;-0.40;99.90;;;;;;5023341;28;19957;-68
2022/01/26 05:35:14;;;;;;;;;;;-0.50;99.90;;;;;;5023190;28;19928;-68
2022/01/26 05:37:42;;;;;;;;;;;-0.60;99.90;;;;;;5023352;28;19921;-68
2022/01/26 05:40:09;;;;;;;;;;;-0.60;99.90;;;;;;5023255;28;19922;-68
2022/01/26 05:42:36;;;;;;;;;;;-0.50;99.90;;;;;;5023349;28;19984;-68
2022/01/26 05:45:06;;;;;;;;;;;-0.50;99.90;;;;;;5023032;28;19921;-68
2022/01/26 05:47:34;;;;;;;;;;;-0.50;99.90;;;;;;5041203;28;20267;-68
2022/01/26 05:50:01;;;;;;;;;;;-0.60;99.90;;;;;;5042681;28;19984;-68
2022/01/26 05:52:27;;;;;;;;;;;-0.60;99.90;;;;;;5042991;28;19984;-68
2022/01/26 05:54:55;;;;;;;;;;;-0.50;99.90;;;;;;5042507;28;19921;-69
2022/01/26 05:57:22;;;;;;;;;;;-0.50;99.90;;;;;;5042907;28;19936;-68
2022/01/26 05:59:48;;;;;;;;;;;-0.50;99.90;;;;;;5041622;28;19928;-69
2022/01/26 06:02:15;;;;;;;;;;;-0.50;99.90;;;;;;5043096;28;19921;-69
2022/01/26 06:04:41;;;;;;;;;;;-0.50;99.90;;;;;;5042352;28;19921;-68
2022/01/26 06:07:08;;;;;;;;;;;-0.50;99.90;;;;;;5042948;28;19930;-69
2022/01/26 06:09:35;;;;;;;;;;;-0.40;99.90;;;;;;5042260;28;19963;-69
2022/01/26 06:12:03;;;;;;;;;;;-0.40;99.90;;;;;;5023099;28;20208;-68
2022/01/26 06:14:29;;;;;;;;;;;-0.40;99.90;;;;;;5022504;28;20116;-68
2022/01/26 06:16:56;;;;;;;;;;;-0.40;99.90;;;;;;5022929;28;20112;-69
2022/01/26 06:19:22;;;;;;;;;;;-0.30;99.90;;;;;;5024428;28;19922;-69
2022/01/26 06:21:49;;;;;;;;;;;-0.40;99.90;;;;;;5027014;28;19945;-69
2022/01/26 06:24:16;;;;;;;;;;;-0.30;99.90;;;;;;5044190;28;19921;-69
2022/01/26 06:26:42;;;;;;;;;;;-0.30;99.90;;;;;;5046786;28;19927;-69
2022/01/26 06:29:10;;;;;;;;;;;-0.30;99.90;;;;;;5042491;28;19969;-69
2022/01/26 06:31:40;;;;;;;;;;;-0.30;99.90;;;;;;5028310;28;19921;-69
2022/01/26 06:34:08;;;;;;;;;;;-0.40;99.90;;;;;;5022548;28;20372;-69
2022/01/26 06:36:36;;;;;;;;;;;-0.30;99.90;;;;;;5023603;28;19921;-69
2022/01/26 06:39:02;;;;;;;;;;;-0.30;99.90;;;;;;5026308;28;19971;-70
2022/01/26 06:41:29;;;;;;;;;;;-0.40;99.90;;;;;;5038937;28;19921;-69
2022/01/26 06:44:02;;;;;;;;;;;-0.30;99.90;;;;;;5045749;28;20142;-69
2022/01/26 06:46:39;;;;;;;;;;;-0.40;99.90;;;;;;5046334;28;20141;-69
2022/01/26 06:51:50;;;;;;;;;;;-0.40;99.90;;;;;;5038651;28;19975;-70
2022/01/26 06:54:16;;;;;;;;;;;-0.40;99.90;;;;;;5045719;28;19921;-69
2022/01/26 06:56:44;;;;;;;;;;;-0.40;99.90;;;;;;5046361;28;19921;-69
2022/01/26 06:59:11;;;;;;;;;;;-0.40;99.90;;;;;;5006339;28;19933;-68
2022/01/26 07:01:39;;;;;;;;;;;-0.30;99.90;;;;;;5017356;28;19928;-69
2022/01/26 07:04:06;;;;;;;;;;;-0.40;99.90;;;;;;5046064;28;19921;-69
2022/01/26 07:06:33;;;;;;;;;;;-0.40;99.90;;;;;;5025321;28;19922;-69
2022/01/26 07:08:59;;;;;;;;;;;-0.40;99.90;;;;;;5026222;28;20093;-69
2022/01/26 07:11:26;;;;;;;;;;;-0.40;99.90;;;;;;5026599;28;19928;-68
2022/01/26 07:13:53;;;;;;;;;;;-0.40;99.90;;;;;;5025623;28;20127;-69
2022/01/26 07:21:50;;;;;;;;;;;-0.40;99.90;;;;;;5044862;28;19928;-69
2022/01/26 07:24:22;;;;;;;;;;;-0.40;99.90;;;;;;5045096;28;19921;-69
2022/01/26 07:26:52;;;;;;;;;;;-0.40;99.90;;;;;;5045927;28;19984;-69
2022/01/26 07:29:23;;;;;;;;;;;-0.40;99.90;;;;;;5045604;28;19921;-68
2022/01/26 07:31:50;;;;;;;;;;;-0.40;99.90;;;;;;5045782;28;19960;-68
2022/01/26 07:34:20;;;;;;;;;;;-0.50;99.90;;;;;;5045539;28;19921;-69
2022/01/26 07:36:48;;;;;;;;;;;-0.50;99.90;;;;;;5045510;28;19921;-68
2022/01/26 07:39:18;;;;;;;;;;;-0.50;99.90;;;;;;5045641;28;19948;-68
2022/01/26 07:41:45;;;;;;;;;;;-0.60;99.90;;;;;;5044810;28;20169;-69
2022/01/26 07:44:11;;;;;;;;;;;-0.60;99.90;;;;;;5034625;28;20163;-69
2022/01/26 07:46:38;;;;;;;;;;;-0.70;99.90;;;;;;5024798;28;19921;-69
2022/01/26 07:49:05;;;;;;;;;;;-0.70;99.90;;;;;;5036117;28;19922;-69
2022/01/26 07:51:33;;;;;;;;;;;-0.60;99.90;;;;;;5038113;28;19921;-68
2022/01/26 07:53:59;;;;;;;;;;;-0.60;99.90;;;;;;5042770;28;20220;-68
2022/01/26 07:56:26;;;;;;;;;;;-0.60;99.90;;;;;;5042334;28;19934;-69
2022/01/26 07:58:53;;;;;;;;;;;-0.60;99.90;;;;;;5024645;28;19921;-69
2022/01/26 08:01:20;;;;;;;;;;;-0.60;99.90;;;;;;5025037;28;19989;-69
2022/01/26 08:03:46;;;;;;;;;;;-0.60;99.90;;;;;;5032590;28;20209;-69
2022/01/26 08:06:16;;;;;;;;;;;-0.60;99.90;;;;;;5044803;28;19944;-69
2022/01/26 08:08:45;;;;;;;;;;;-0.60;99.90;;;;;;5044810;28;19963;-69
2022/01/26 08:11:11;;;;;;;;;;;-0.60;99.90;;;;;;5033809;28;19933;-69
2022/01/26 08:13:38;;;;;;;;;;;-0.60;99.90;;;;;;5025263;28;19927;-69
2022/01/26 08:16:05;;;;;;;;;;;-0.60;99.90;;;;;;5031706;28;19960;-69
2022/01/26 08:18:32;;;;;;;;;;;-0.60;99.90;;;;;;5023816;28;19937;-69
2022/01/26 08:21:04;;;;;;;;;;;-0.60;99.90;;;;;;5021108;28;19921;-69
2022/01/26 08:23:31;;;;;;;;;;;-0.60;99.90;;;;;;5043676;28;20116;-69
2022/01/26 08:25:59;;;;;;;;;;;-0.60;99.90;;;;;;5034716;28;19921;-69
2022/01/26 08:28:30;;;;;;;;;;;-0.60;99.90;;;;;;5023471;28;19921;-69
2022/01/26 08:30:57;;;;;;;;;;;-0.90;99.90;;;;;;5024041;28;19983;-70
2022/01/26 08:33:24;;;;;;;;;;;-0.70;99.90;;;;;;5023913;28;19927;-69
2022/01/26 08:35:50;;;;;;;;;;;-0.70;99.90;;;;;;5027516;28;19925;-69
2022/01/26 08:38:17;;;;;;;;;;;-0.70;99.90;;;;;;5037351;28;19928;-69
2022/01/26 08:40:45;;;;;;;;;;;-0.80;99.90;;;;;;5036425;28;20212;-70
2022/01/26 08:43:13;;;;;;;;;;;-0.70;99.90;;;;;;5023964;28;19949;-70
2022/01/26 08:45:40;;;;;;;;;;;-0.80;99.90;;;;;;5032453;28;19943;-69
2022/01/26 08:48:06;;;;;;;;;;;-0.90;99.90;;;;;;5024070;28;19922;-69
2022/01/26 08:50:33;;;;;;;;;;;-0.90;99.90;;;;;;5024223;28;19943;-70
2022/01/26 08:53:00;;;;;;;;;;;-0.90;99.90;;;;;;5031465;28;19928;-69
2022/01/26 08:55:26;;;;;;;;;;;-0.90;99.90;;;;;;5043368;28;19953;-69
2022/01/26 08:57:53;;;;;;;;;;;-0.90;99.90;;;;;;5043692;28;19921;-69
2022/01/26 09:00:21;;;;;;;;;;;-0.90;99.90;;;;;;5042995;28;19922;-69
2022/01/26 09:02:51;;;;;;;;;;;-1.00;99.90;;;;;;5037242;28;19935;-69
2022/01/26 09:05:17;;;;;;;;;;;-1.00;99.90;;;;;;5019460;28;20202;-69
2022/01/26 09:07:45;;;;;;;;;;;-1.00;99.90;;;;;;5022141;28;19929;-69
2022/01/26 09:10:12;;;;;;;;;;;-0.90;99.90;;;;;;5020582;28;19922;-69
2022/01/26 09:12:42;;;;;;;;;;;-0.90;99.90;;;;;;5018539;28;20014;-69
2022/01/26 09:15:10;;;;;;;;;;;-0.80;99.90;;;;;;5018735;28;19921;-68
2022/01/26 09:17:38;;;;;;;;;;;-0.70;99.90;;;;;;5017624;28;19960;-68
2022/01/26 09:20:06;;;;;;;;;;;-0.70;99.90;;;;;;5029095;28;19921;-68
2022/01/26 09:22:33;;;;;;;;;;;-0.60;99.90;;;;;;5026521;28;20128;-68
2022/01/26 09:25:00;;;;;;;;;;;-0.60;99.90;;;;;;5040886;28;19921;-68
2022/01/26 09:27:27;;;;;;;;;;;-0.60;99.90;;;;;;5023647;28;19921;-68
2022/01/26 09:29:53;;;;;;;;;;;-0.60;99.90;;;;;;5016147;28;20001;-69
2022/01/26 09:32:20;;;;;;;;;;;-0.60;99.90;;;;;;5023987;28;19922;-69
2022/01/26 09:34:48;;;;;;;;;;;-0.60;99.90;;;;;;5020707;28;20188;-69
2022/01/26 09:37:16;;;;;;;;;;;-0.70;99.90;;;;;;5042834;28;20090;-69
2022/01/26 09:39:44;;;;;;;;;;;-0.70;99.90;;;;;;5017984;28;19921;-69
2022/01/26 09:42:11;;;;;;;;;;;-0.60;99.90;;;;;;5034054;28;19941;-68
2022/01/26 09:44:38;;;;;;;;;;;-0.70;99.90;;;;;;5033269;28;19929;-69
2022/01/26 09:47:05;;;;;;;;;;;-0.70;99.90;;;;;;5021158;28;19993;-69
2022/01/26 09:49:33;;;;;;;;;;;-0.60;99.90;;;;;;5021098;28;19922;-69
2022/01/26 09:52:02;;;;;;;;;;;-0.70;99.90;;;;;;5026749;28;20297;-69
2022/01/26 09:54:31;;;;;;;;;;;-0.70;99.90;;;;;;5038753;28;19984;-69
2022/01/26 09:57:02;;;;;;;;;;;-0.60;99.90;;;;;;5023278;28;19957;-69
2022/01/26 09:59:29;;;;;;;;;;;-0.60;99.90;;;;;;5026961;28;19956;-69
2022/01/26 10:01:56;;;;;;;;;;;-0.60;99.90;;;;;;5037865;28;19941;-69
2022/01/26 10:04:24;;;;;;;;;;;-0.50;99.90;;;;;;5024724;28;20243;-69
2022/01/26 10:07:08;;;;;;;;;;;-0.50;99.90;;;;;;5035353;28;19929;-70
2022/01/26 10:09:50;;;;;;;;;;;-0.60;99.90;;;;;;5024054;28;19922;-70
2022/01/26 10:17:50;;;;;;;;;;;-0.60;99.90;;;;;;5023272;28;19936;-69
2022/01/26 10:20:17;;;;;;;;;;;-0.60;99.90;;;;;;5028367;28;19922;-69
2022/01/26 10:22:46;;;;;;;;;;;-0.60;99.90;;;;;;5026859;28;19945;-69
2022/01/26 10:25:14;;;;;;;;;;;-0.50;99.90;;;;;;5024895;28;20228;-69
2022/01/26 10:27:41;;;;;;;;;;;-0.50;99.90;;;;;;5035321;28;19921;-69
2022/01/26 10:30:09;;;;;;;;;;;-0.50;99.90;;;;;;5026215;28;19988;-69
2022/01/26 10:32:36;;;;;;;;;;;-0.50;99.90;;;;;;5026445;28;19928;-69
2022/01/26 10:35:04;;;;;;;;;;;-0.50;99.90;;;;;;5025580;28;19929;-70
2022/01/26 10:37:31;;;;;;;;;;;-0.50;99.90;;;;;;5025930;28;19927;-70
2022/01/26 10:40:11;;;;;;;;;;;-0.50;99.90;;;;;;5026481;28;20117;-69
2022/01/26 10:42:37;;;;;;;;;;;-0.50;99.90;;;;;;5025971;28;19968;-70
2022/01/26 10:45:10;;;;;;;;;;;-0.40;99.90;;;;;;5025829;28;19981;-69
2022/01/26 10:47:41;;;;;;;;;;;-0.40;99.90;;;;;;5025789;28;19921;-69
2022/01/26 10:50:46;;;;;;;;;;;-0.40;99.90;;;;;;5026355;28;19925;-69
2022/01/26 10:53:15;;;;;;;;;;;-0.40;99.90;;;;;;5026177;28;19988;-68
2022/01/26 10:55:44;;;;;;;;;;;-0.40;99.90;;;;;;5025200;28;20177;-69
2022/01/26 10:58:10;;;;;;;;;;;-0.40;99.90;;;;;;5025761;28;19925;-69
2022/01/26 11:00:38;;;;;;;;;;;-0.50;99.90;;;;;;5025914;28;19928;-71
2022/01/26 11:03:05;;;;;;;;;;;-0.50;99.90;;;;;;5025780;28;19922;-70
2022/01/26 11:05:31;;;;;;;;;;;-0.50;99.90;;;;;;5033893;28;19929;-70
2022/01/26 11:07:59;;;;;;;;;;;-0.50;99.90;;;;;;5039335;28;19925;-71
2022/01/26 11:10:32;;;;;;;;;;;-0.50;99.90;;;;;;5035486;28;19921;-70
2022/01/26 11:13:00;;;;;;;;;;;-0.50;99.90;;;;;;5030771;28;19921;-70
2022/01/26 11:15:26;;;;;;;;;;;-0.60;99.90;;;;;;5034796;28;19929;-71
2022/01/26 11:18:04;;;;;;;;;;;-0.60;99.90;;;;;;5037643;28;20045;-70
2022/01/26 11:20:32;;;;;;;;;;;-0.60;99.90;;;;;;5028107;28;19928;-71
2022/01/26 11:22:59;;;;;;;;;;;-0.50;99.90;;;;;;5031784;28;19921;-71
2022/01/26 11:25:27;;;;;;;;;;;-0.50;99.90;;;;;;5018112;28;20133;-68
2022/01/26 11:27:55;;;;;;;;;;;-0.50;99.90;;;;;;5030874;28;19944;-71
2022/01/26 11:30:26;;;;;;;;;;;-0.60;99.90;;;;;;5042191;28;19921;-70
2022/01/26 11:32:54;;;;;;;;;;;-0.70;99.90;;;;;;5040485;28;20144;-71
2022/01/26 11:35:23;;;;;;;;;;;-0.80;99.90;;;;;;5044007;28;19948;-71
2022/01/26 11:38:03;;;;;;;;;;;-0.80;99.90;;;;;;5030368;28;20160;-71
2022/01/26 11:46:09;;;;;;;;;;;-0.90;99.90;;;;;;5031235;28;19983;-69
2022/01/26 11:48:36;;;;;;;;;;;-0.90;99.90;;;;;;5026898;28;19980;-71
2022/01/26 11:51:03;;;;;;;;;;;-0.90;99.90;;;;;;5025203;28;20124;-69
2022/01/26 11:53:30;;;;;;;;;;;-0.90;99.90;;;;;;5029668;28;19921;-69
2022/01/26 11:56:03;;;;;;;;;;;-0.80;99.90;;;;;;5044569;28;19945;-71
2022/01/26 11:58:33;;;;;;;;;;;-0.80;99.90;;;;;;5044691;28;20000;-71
2022/01/26 12:01:11;;;;;;;;;;;-0.70;99.90;;;;;;5045094;28;19992;-69
2022/01/26 12:03:46;;;;;;;;;;;-0.70;99.90;;;;;;5044148;28;19921;-69
2022/01/26 12:06:19;;;;;;;;;;;-0.80;99.90;;;;;;5045040;28;19988;-69
2022/01/26 12:08:45;;;;;;;;;;;-0.80;99.90;;;;;;5035558;28;20116;-69
2022/01/26 12:11:13;;;;;;;;;;;-0.80;99.90;;;;;;5023837;28;19921;-69
2022/01/26 12:13:40;;;;;;;;;;;-0.80;99.90;;;;;;5014509;28;19922;-69
2022/01/26 12:16:10;;;;;;;;;;;-0.80;99.90;;;;;;5036310;28;19920;-69
2022/01/26 12:18:44;;;;;;;;;;;-0.80;99.90;;;;;;5033423;28;20120;-69
2022/01/26 12:32:33;;;;;;;;;;;-0.70;99.90;;;;;;5024017;28;19925;-69
2022/01/26 12:35:12;;;;;;;;;;;-0.80;99.90;;;;;;5022987;28;19943;-69
2022/01/26 12:37:50;;;;;;;;;;;-0.80;99.90;;;;;;5024518;28;19922;-69
2022/01/26 12:43:09;;;;;;;;;;;-0.90;99.90;;;;;;5024418;28;20117;-69
2022/01/26 12:45:36;;;;;;;;;;;-1.00;99.90;;;;;;5023613;28;19921;-70
2022/01/26 12:48:02;;;;;;;;;;;-0.90;99.90;;;;;;5024522;28;19927;-70
2022/01/26 12:50:30;;;;;;;;;;;-0.80;99.90;;;;;;5020787;28;19921;-70
2022/01/26 12:52:57;;;;;;;;;;;-0.90;99.90;;;;;;5029664;28;19921;-70
2022/01/26 12:55:25;;;;;;;;;;;-0.90;99.90;;;;;;5007324;28;20001;-69
2022/01/26 12:57:52;;;;;;;;;;;-0.80;99.90;;;;;;5005634;28;19928;-69
2022/01/26 13:00:19;;;;;;;;;;;-0.80;99.90;;;;;;5024242;28;20259;-69
2022/01/26 13:02:45;;;;;;;;;;;-0.90;99.90;;;;;;5026872;28;20132;-70
2022/01/26 13:05:14;;;;;;;;;;;-0.80;99.90;;;;;;5024783;28;19921;-69
2022/01/26 13:07:42;;;;;;;;;;;-0.80;99.90;;;;;;5022585;28;20151;-70
2022/01/26 13:10:16;;;;;;;;;;;-0.80;99.90;;;;;;5046390;28;19927;-70
2022/01/26 13:12:43;;;;;;;;;;;-0.80;99.90;;;;;;5045133;28;19921;-69
2022/01/26 13:15:17;;;;;;;;;;;-0.70;99.90;;;;;;5042987;28;19995;-70
2022/01/26 13:17:51;;;;;;;;;;;-0.70;99.90;;;;;;5034966;28;19922;-68
2022/01/26 13:20:30;;;;;;;;;;;-0.80;99.90;;;;;;5015318;28;19929;-70
2022/01/26 13:23:16;;;;;;;;;;;-0.80;99.90;;;;;;5011646;28;19953;-70
2022/01/26 13:25:55;;;;;;;;;;;-0.80;99.90;;;;;;5017397;28;19921;-69
2022/01/26 13:28:31;;;;;;;;;;;-0.80;99.90;;;;;;5022847;28;20173;-70
2022/01/26 13:31:20;;;;;;;;;;;-0.90;99.90;;;;;;5022975;28;19921;-70
2022/01/26 13:34:32;;;;;;;;;;;-0.80;99.90;;;;;;5021316;28;19921;-70
2022/01/26 13:37:10;;;;;;;;;;;-0.90;99.90;;;;;;5022747;28;20194;-70
2022/01/26 13:40:07;;;;;;;;;;;-1.00;99.90;;;;;;5020746;28;19921;-69
2022/01/26 13:50:43;;;;;;;;;;;-1.00;99.90;;;;;;5026528;28;19917;-71
2022/01/26 13:53:13;;;;;;;;;;;-0.90;99.90;;;;;;5026678;28;19933;-70
2022/01/26 13:55:58;;;;;;;;;;;-1.00;99.90;;;;;;5024268;28;19985;-69
2022/01/26 13:58:42;;;;;;;;;;;-0.90;99.90;;;;;;5024720;28;19945;-70
2022/01/26 14:01:16;;;;;;;;;;;-0.90;99.90;;;;;;5029059;28;19928;-70
2022/01/26 14:03:46;;;;;;;;;;;-0.90;99.90;;;;;;5024214;28;19921;-70
2022/01/26 14:06:12;;;;;;;;;;;-0.90;99.90;;;;;;5026261;28;19921;-70
2022/01/26 14:08:40;;;;;;;;;;;-0.80;99.90;;;;;;5026840;28;19928;-70
2022/01/26 14:11:08;;;;;;;;;;;-0.80;99.90;;;;;;5045716;28;19921;-70
2022/01/26 14:13:36;;;;;;;;;;;-0.80;99.90;;;;;;5046300;28;19984;-70
2022/01/26 14:16:04;;;;;;;;;;;-0.70;99.90;;;;;;5042428;28;19922;-70
2022/01/26 14:19:01;;;;;;;;;;;-0.70;99.90;;;;;;5022636;28;19964;-70
2022/01/26 14:21:33;;;;;;;;;;;-0.60;99.90;;;;;;5008504;28;19976;-69
2022/01/26 14:24:23;;;;;;;;;;;-0.60;99.90;;;;;;5006853;28;19922;-70
2022/01/26 14:26:55;;;;;;;;;;;-0.60;99.90;;;;;;5007391;28;19984;-71
2022/01/26 14:29:31;;;;;;;;;;;-0.60;99.90;;;;;;5007120;28;19921;-70
2022/01/26 14:51:40;;;;;;;;;;;-0.70;99.90;;;;;;5041299;28;20108;-69
2022/01/26 15:19:33;;;;;;;;;;;-0.80;99.90;;;;;;5036349;28;19928;-69
2022/01/26 15:30:19;;;;;;;;;;;-0.80;99.90;;;;;;5047008;23;19963;-70
2022/01/26 15:35:52;;;;;;;;;;;-0.90;99.90;;;;;;5024632;28;19967;-70
2022/01/26 15:41:17;;;;;;;;;;;-0.90;99.90;;;;;;5025637;28;19925;-69
2022/01/26 15:44:05;;;;;;;;;;;-0.90;99.90;;;;;;5025338;28;20149;-70
2022/01/26 15:52:23;;;;;;;;;;;-0.80;99.90;;;;;;5010692;28;19984;-70
2022/01/26 16:06:03;;;;;;;;;;;-0.70;99.90;;;;;;5018965;28;20020;-67
2022/01/26 16:17:03;;;;;;;;;;;-0.60;99.90;;;;;;5024090;28;20084;-68
2022/01/26 16:19:55;;;;;;;;;;;-0.60;99.90;;;;;;5023775;28;19922;-69
2022/01/26 16:39:24;;;;;;;;;;;-0.60;99.90;;;;;;5022943;28;19928;-69
2022/01/26 16:53:35;;;;;;;;;;;-0.60;99.90;;;;;;5003731;28;20116;-70
2022/01/26 18:04:38;;;;;;;;;;;-0.90;99.90;;;;;;5001392;28;19929;-68
2022/01/26 18:07:22;;;;;;;;;;;-0.80;99.90;;;;;;5001906;28;20202;-68
2022/01/26 18:15:33;;;;;;;;;;;-0.90;99.90;;;;;;5001371;28;19964;-69
2022/01/26 18:22:20;;;;;;;;;;;-0.80;99.90;;;;;;5001537;28;19921;-68
2022/01/26 18:26:26;;;;;;;;;;;-0.90;99.90;;;;;;4988411;28;19918;-69
2022/01/26 18:32:03;;;;;;;;;;;-1.00;99.90;;;;;;5009466;28;19960;-66
2022/01/26 18:51:24;;;;;;;;;;;-1.00;99.90;;;;;;5004926;28;20117;-69
2022/01/26 18:53:50;;;;;;;;;;;-1.00;99.90;;;;;;5004204;28;19928;-68
2022/01/26 18:56:17;;;;;;;;;;;-1.00;99.90;;;;;;5005232;28;19928;-69
2022/01/26 18:58:44;;;;;;;;;;;-1.00;99.90;;;;;;5014964;28;19922;-72
2022/01/26 19:01:11;;;;;;;;;;;-1.00;99.90;;;;;;5023611;28;19952;-69
2022/01/26 19:03:37;;;;;;;;;;;-1.00;99.90;;;;;;5023906;28;19928;-66
2022/01/26 19:06:04;;;;;;;;;;;-0.90;99.90;;;;;;5023886;28;19921;-68
2022/01/26 19:08:32;;;;;;;;;;;-0.90;99.90;;;;;;5004526;28;19928;-69
2022/01/26 19:10:59;;;;;;;;;;;-1.00;99.90;;;;;;5011000;28;20217;-69
2022/01/26 19:13:29;;;;;;;;;;;-0.90;99.90;;;;;;5023991;28;19922;-68
2022/01/26 19:16:01;;;;;;;;;;;-0.90;99.90;;;;;;5023366;28;19921;-69
2022/01/26 19:18:42;;;;;;;;;;;-0.90;99.90;;;;;;5021829;28;19929;-69
2022/01/26 19:21:16;;;;;;;;;;;-1.00;99.90;;;;;;5023751;28;19922;-69
2022/01/26 19:24:00;;;;;;;;;;;-1.00;99.90;;;;;;5023327;28;19928;-69
2022/01/26 19:26:32;;;;;;;;;;;-1.00;99.90;;;;;;5023870;28;19935;-69
2022/01/26 19:29:07;;;;;;;;;;;-1.10;99.90;;;;;;5018913;28;19921;-69
2022/01/26 19:32:18;;;;;;;;;;;-1.20;99.90;;;;;;5023787;28;19960;-69
2022/01/26 19:40:51;;;;;;;;;;;-1.30;99.90;;;;;;5023545;28;20236;-66
2022/01/26 19:46:12;;;;;;;;;;;-1.30;99.90;;;;;;5024777;28;20172;-69
2022/01/26 19:51:23;;;;;;;;;;;-1.30;99.90;;;;;;5023460;28;19925;-69
2022/01/26 19:53:50;;;;;;;;;;;-1.20;99.90;;;;;;5023009;28;19965;-69
2022/01/26 19:56:18;;;;;;;;;;;-1.30;99.90;;;;;;5023308;28;20200;-69
2022/01/26 19:58:44;;;;;;;;;;;-1.20;99.90;;;;;;5022586;28;19928;-69
2022/01/26 20:01:12;;;;;;;;;;;-1.20;99.90;;;;;;5020622;28;19929;-69
2022/01/26 20:03:39;;;;;;;;;;;-1.30;99.90;;;;;;5022823;28;19929;-69